Time;durP1;ratioP1;P1;durP2;ratioP2;P2;SDS_P1;SDS_P2;PMS_P1;PMS_P2;Temp;Humidity;BMP_temperature;BMP_pressure;BME280_temperature;BME280_humidity;BME280_pressure;Samples;Min_cycle;Max_cycle;Signal;HPM_P1;HPM_P2
2021/07/29 00:00:19;;;;;;;3.50;3.23;;;24.30;36.70;;;;;;5053413;28;20195;-65
2021/07/29 00:02:45;;;;;;;3.47;3.17;;;24.30;36.70;;;;;;5053337;28;20414;-65
2021/07/29 00:05:11;;;;;;;3.40;3.03;;;24.30;36.70;;;;;;5052831;28;20422;-65
2021/07/29 00:07:36;;;;;;;4.00;3.70;;;24.30;36.70;;;;;;5053298;28;20757;-63
2021/07/29 00:10:05;;;;;;;3.50;3.20;;;24.30;36.80;;;;;;5053242;28;20435;-64
2021/07/29 00:12:31;;;;;;;3.90;3.60;;;24.30;36.70;;;;;;5052999;28;20529;-64
2021/07/29 00:14:57;;;;;;;3.33;3.13;;;24.30;36.70;;;;;;5052875;28;20413;-64
2021/07/29 00:19:01;;;;;;;3.30;3.10;;;24.30;36.80;;;;;;5053336;28;20204;-64
2021/07/29 00:20:27;;;;;;;3.23;3.00;;;24.30;36.70;;;;;;5052738;28;20447;-64
2021/07/29 00:22:57;;;;;;;3.43;3.23;;;24.30;36.80;;;;;;5053071;28;20413;-64
2021/07/29 00:25:24;;;;;;;3.40;3.20;;;24.30;36.70;;;;;;5052815;28;20407;-64
2021/07/29 00:27:51;;;;;;;3.43;3.23;;;24.30;36.70;;;;;;5052729;28;20403;-64
2021/07/29 00:30:19;;;;;;;3.17;2.97;;;24.30;36.70;;;;;;5053009;28;20438;-65
2021/07/29 00:32:45;;;;;;;3.40;3.20;;;24.30;36.70;;;;;;5052737;28;20407;-64
2021/07/29 00:35:15;;;;;;;2.87;2.77;;;24.30;36.60;;;;;;5052398;28;20406;-64
2021/07/29 00:37:42;;;;;;;2.80;2.70;;;24.30;37.40;;;;;;5051571;28;20456;-65
2021/07/29 00:40:09;;;;;;;3.10;2.80;;;24.30;36.50;;;;;;5052859;28;20438;-64
2021/07/29 00:42:35;;;;;;;3.50;3.30;;;24.30;36.50;;;;;;5052461;28;20442;-64
2021/07/29 00:45:00;;;;;;;3.70;3.40;;;24.30;36.50;;;;;;5052538;28;20500;-65
2021/07/29 00:47:26;;;;;;;3.37;3.07;;;24.30;36.50;;;;;;5052657;28;20172;-64
2021/07/29 00:49:53;;;;;;;3.20;3.00;;;24.30;36.50;;;;;;5052232;28;20212;-65
2021/07/29 00:52:21;;;;;;;3.37;3.10;;;24.20;36.30;;;;;;5052147;28;20774;-65
2021/07/29 00:54:48;;;;;;;3.30;3.10;;;24.20;36.30;;;;;;5052601;28;20402;-65
2021/07/29 00:57:14;;;;;;;3.70;3.40;;;24.20;36.30;;;;;;5052332;28;20406;-65
2021/07/29 00:59:40;;;;;;;3.50;3.30;;;24.20;36.20;;;;;;5052349;28;20446;-64
2021/07/29 01:02:06;;;;;;;3.43;3.13;;;24.20;36.20;;;;;;5052489;28;20407;-64
2021/07/29 01:04:32;;;;;;;2.87;2.73;;;24.20;36.20;;;;;;5051649;28;20623;-65
2021/07/29 01:06:57;;;;;;;3.30;3.10;;;24.20;36.20;;;;;;5052410;28;20199;-64
2021/07/29 01:09:23;;;;;;;2.70;2.50;;;24.20;36.20;;;;;;5052363;28;20469;-64
2021/07/29 01:11:48;;;;;;;3.23;3.03;;;24.20;36.20;;;;;;5052236;28;20206;-65
2021/07/29 01:14:15;;;;;;;3.03;2.83;;;24.20;36.10;;;;;;5052486;28;20179;-65
2021/07/29 01:16:41;;;;;;;2.70;2.60;;;24.20;36.10;;;;;;5051938;28;20263;-65
2021/07/29 01:19:07;;;;;;;3.17;2.97;;;24.20;36.00;;;;;;5052076;28;20986;-65
2021/07/29 01:21:33;;;;;;;3.27;3.07;;;24.20;36.10;;;;;;5052019;28;20423;-65
2021/07/29 01:23:59;;;;;;;3.23;3.03;;;24.20;36.00;;;;;;5052419;28;20454;-64
2021/07/29 01:26:27;;;;;;;3.00;2.80;;;24.20;36.00;;;;;;5052032;28;20407;-64
2021/07/29 01:28:53;;;;;;;3.17;2.97;;;24.20;36.00;;;;;;5051610;28;21017;-64
2021/07/29 01:31:19;;;;;;;3.23;3.03;;;24.20;35.90;;;;;;5052350;28;20853;-63
2021/07/29 01:33:45;;;;;;;3.20;3.00;;;24.20;35.90;;;;;;5051862;28;20485;-64
2021/07/29 01:36:11;;;;;;;2.97;2.77;;;24.20;35.90;;;;;;5051680;28;20617;-64
2021/07/29 01:38:37;;;;;;;3.03;2.73;;;24.20;35.90;;;;;;5051869;28;20438;-64
2021/07/29 01:41:02;;;;;;;3.43;3.23;;;24.20;35.90;;;;;;5051895;28;20553;-64
2021/07/29 01:43:29;;;;;;;2.80;2.70;;;24.20;36.60;;;;;;5051516;28;20658;-64
2021/07/29 01:45:55;;;;;;;3.00;2.80;;;24.20;35.90;;;;;;5051569;28;20172;-64
2021/07/29 01:48:20;;;;;;;2.47;2.37;;;24.20;35.90;;;;;;5051494;28;20458;-64
2021/07/29 01:50:46;;;;;;;3.40;3.10;;;24.20;35.90;;;;;;5051264;28;20176;-64
2021/07/29 01:53:12;;;;;;;2.70;2.60;;;24.10;35.90;;;;;;5051842;28;20544;-65
2021/07/29 01:55:42;;;;;;;3.00;2.80;;;24.10;35.80;;;;;;5051514;28;20176;-65
2021/07/29 01:58:08;;;;;;;4.93;2.97;;;24.20;36.00;;;;;;5051194;28;20468;-65
2021/07/29 02:00:34;;;;;;;3.40;3.20;;;24.20;35.90;;;;;;5051725;28;20406;-65
2021/07/29 02:03:01;;;;;;;2.60;2.50;;;24.10;35.80;;;;;;5051563;28;20194;-64
2021/07/29 02:05:27;;;;;;;3.20;3.00;;;24.20;35.90;;;;;;5054391;28;20477;-65
2021/07/29 02:07:53;;;;;;;3.20;3.00;;;24.10;35.90;;;;;;5055508;28;20454;-64
2021/07/29 02:10:18;;;;;;;3.30;3.10;;;24.10;35.80;;;;;;5055705;28;20200;-64
2021/07/29 02:12:44;;;;;;;2.87;2.70;;;24.10;35.90;;;;;;5055233;28;20176;-64
2021/07/29 02:15:10;;;;;;;2.90;2.80;;;24.10;35.90;;;;;;5055456;28;20658;-64
2021/07/29 02:17:35;;;;;;;3.37;3.17;;;24.10;35.90;;;;;;5055332;28;20548;-64
2021/07/29 02:20:01;;;;;;;3.70;3.40;;;24.10;35.90;;;;;;5055028;28;20467;-64
2021/07/29 02:22:26;;;;;;;3.83;3.53;;;24.10;35.90;;;;;;5055385;28;20644;-64
2021/07/29 02:24:52;;;;;;;3.37;3.17;;;24.10;35.90;;;;;;5055158;28;20536;-65
2021/07/29 02:27:18;;;;;;;3.93;3.63;;;24.10;35.90;;;;;;5055077;28;20184;-64
2021/07/29 02:29:44;;;;;;;3.77;3.47;;;24.10;35.90;;;;;;5055106;28;20208;-65
2021/07/29 02:32:09;;;;;;;3.50;3.30;;;24.10;36.70;;;;;;5055055;28;20429;-64
2021/07/29 02:34:35;;;;;;;3.30;3.10;;;24.10;35.90;;;;;;5054634;28;20167;-65
2021/07/29 02:37:00;;;;;;;3.60;3.30;;;24.10;35.90;;;;;;5055171;28;20551;-65
2021/07/29 02:39:26;;;;;;;4.30;4.00;;;24.10;36.00;;;;;;5055077;28;20200;-64
2021/07/29 02:41:51;;;;;;;3.17;2.97;;;24.10;36.00;;;;;;5054838;28;20638;-65
2021/07/29 02:44:18;;;;;;;3.80;3.50;;;24.10;35.90;;;;;;5055087;28;20190;-64
2021/07/29 02:46:44;;;;;;;3.93;3.63;;;24.10;36.00;;;;;;5054860;28;20176;-64
2021/07/29 02:49:09;;;;;;;2.90;2.70;;;24.10;36.00;;;;;;5054631;28;20806;-64
2021/07/29 02:51:35;;;;;;;3.70;3.40;;;24.10;36.00;;;;;;5054974;28;20183;-63
2021/07/29 02:54:00;;;;;;;3.20;3.00;;;24.10;36.00;;;;;;5054816;28;20180;-63
2021/07/29 02:56:26;;;;;;;3.47;3.27;;;24.10;36.00;;;;;;5054515;28;20536;-63
2021/07/29 02:58:51;;;;;;;3.37;3.17;;;24.10;36.00;;;;;;5054802;28;20238;-64
2021/07/29 03:01:17;;;;;;;2.90;2.70;;;24.10;36.80;;;;;;5054663;28;20195;-64
2021/07/29 03:03:45;;;;;;;3.10;2.90;;;24.10;36.10;;;;;;5054293;28;20727;-63
2021/07/29 03:06:11;;;;;;;3.57;3.37;;;24.10;36.00;;;;;;5054296;28;20180;-64
2021/07/29 03:08:38;;;;;;;3.17;2.97;;;24.10;36.10;;;;;;5053618;28;20465;-64
2021/07/29 03:11:04;;;;;;;3.40;3.20;;;24.10;36.20;;;;;;5053613;28;20441;-65
2021/07/29 03:13:29;;;;;;;3.20;3.00;;;24.10;36.10;;;;;;5055331;28;20453;-64
2021/07/29 03:15:55;;;;;;;3.67;3.47;;;24.10;36.10;;;;;;5055102;28;20300;-64
2021/07/29 03:18:20;;;;;;;3.70;3.50;;;24.10;36.90;;;;;;5054275;28;20525;-64
2021/07/29 03:20:46;;;;;;;3.30;3.10;;;24.10;36.20;;;;;;5054856;28;20168;-63
2021/07/29 03:23:11;;;;;;;3.40;3.20;;;24.10;36.20;;;;;;5054536;28;20230;-64
2021/07/29 03:25:38;;;;;;;4.27;4.00;;;24.10;36.20;;;;;;5053878;28;20179;-63
2021/07/29 03:28:07;;;;;;;3.43;3.23;;;24.10;36.20;;;;;;5054217;28;20214;-63
2021/07/29 03:30:32;;;;;;;3.87;3.47;;;24.00;36.20;;;;;;5054009;28;20410;-63
2021/07/29 03:32:58;;;;;;;4.03;3.73;;;24.10;36.20;;;;;;5054049;28;20410;-64
2021/07/29 03:35:25;;;;;;;3.20;3.00;;;24.00;36.20;;;;;;5053741;28;20622;-64
2021/07/29 03:37:50;;;;;;;3.97;3.67;;;24.10;36.30;;;;;;5054184;28;20172;-64
2021/07/29 03:40:16;;;;;;;3.33;3.13;;;24.10;36.30;;;;;;5053658;28;20449;-64
2021/07/29 03:42:41;;;;;;;3.57;3.37;;;24.00;36.20;;;;;;5053900;28;20172;-65
2021/07/29 03:45:07;;;;;;;4.13;3.80;;;24.10;36.30;;;;;;5053640;28;20180;-66
2021/07/29 03:47:33;;;;;;;3.70;3.50;;;24.10;36.40;;;;;;5053704;28;20176;-63
2021/07/29 03:49:58;;;;;;;3.63;3.40;;;24.10;36.40;;;;;;5053571;28;20251;-63
2021/07/29 03:52:24;;;;;;;3.70;3.50;;;24.10;36.40;;;;;;5053729;28;20179;-64
2021/07/29 03:54:51;;;;;;;3.57;3.27;;;24.10;36.40;;;;;;5053395;28;20195;-64
2021/07/29 03:57:18;;;;;;;3.43;3.23;;;24.10;36.40;;;;;;5053655;28;20168;-63
2021/07/29 03:59:44;;;;;;;3.43;3.13;;;24.10;36.40;;;;;;5053491;28;20431;-64
2021/07/29 04:02:10;;;;;;;4.87;3.73;;;24.10;36.40;;;;;;5053398;28;20418;-64
2021/07/29 04:04:39;;;;;;;3.63;3.43;;;24.10;36.40;;;;;;5053266;28;20195;-64
2021/07/29 04:07:05;;;;;;;4.23;3.97;;;24.10;36.40;;;;;;5053505;28;20414;-64
2021/07/29 04:09:32;;;;;;;4.40;4.00;;;24.10;36.40;;;;;;5053028;28;20482;-64
2021/07/29 04:11:57;;;;;;;7.10;3.80;;;24.10;36.40;;;;;;5053546;28;20826;-64
2021/07/29 04:14:23;;;;;;;3.47;3.17;;;24.10;36.40;;;;;;5053182;28;20419;-64
2021/07/29 04:16:51;;;;;;;4.20;3.80;;;24.10;36.40;;;;;;5052899;28;20738;-64
2021/07/29 04:19:17;;;;;;;3.70;3.40;;;24.20;36.40;;;;;;5053072;28;20187;-64
2021/07/29 04:21:42;;;;;;;3.63;3.30;;;24.20;36.30;;;;;;5053301;28;20506;-64
2021/07/29 04:24:08;;;;;;;3.90;3.60;;;24.20;36.20;;;;;;5052860;28;20554;-64
2021/07/29 04:26:33;;;;;;;4.50;4.10;;;24.10;35.80;;;;;;5051008;28;20180;-64
2021/07/29 04:28:59;;;;;;;3.50;3.30;;;24.10;35.80;;;;;;5052293;28;20261;-65
2021/07/29 04:31:24;;;;;;;4.27;3.97;;;24.10;35.80;;;;;;5053092;28;20184;-65
2021/07/29 04:33:52;;;;;;;4.07;3.47;;;24.20;36.00;;;;;;5052584;28;20176;-65
2021/07/29 04:36:18;;;;;;;3.80;3.60;;;24.20;35.90;;;;;;5052664;28;20184;-62
2021/07/29 04:38:44;;;;;;;4.10;3.80;;;24.20;35.90;;;;;;5052614;28;20434;-66
2021/07/29 04:41:09;;;;;;;3.57;3.37;;;24.10;35.70;;;;;;5050980;28;20510;-63
2021/07/29 04:43:35;;;;;;;4.57;4.17;;;24.20;35.80;;;;;;5052338;28;20200;-66
2021/07/29 04:46:02;;;;;;;3.77;3.57;;;24.20;35.80;;;;;;5052600;28;20203;-65
2021/07/29 04:48:29;;;;;;;3.53;3.33;;;24.20;35.80;;;;;;5052209;28;20211;-64
2021/07/29 04:50:54;;;;;;;4.20;3.80;;;24.20;35.70;;;;;;5052777;28;20413;-65
2021/07/29 04:53:20;;;;;;;3.97;3.67;;;24.20;35.50;;;;;;5052622;28;20415;-64
2021/07/29 04:55:45;;;;;;;5.10;3.70;;;24.20;35.20;;;;;;5052075;28;20550;-63
2021/07/29 04:58:11;;;;;;;4.20;3.80;;;24.20;35.00;;;;;;5052258;28;20187;-64
2021/07/29 05:00:36;;;;;;;3.90;3.60;;;24.20;34.80;;;;;;5051730;28;20234;-67
2021/07/29 05:03:02;;;;;;;4.23;3.70;;;24.20;34.60;;;;;;5044953;28;20259;-66
2021/07/29 05:05:27;;;;;;;3.80;3.50;;;24.20;34.40;;;;;;5052011;28;20230;-66
2021/07/29 05:07:53;;;;;;;4.13;3.83;;;24.20;34.20;;;;;;5052537;28;20176;-67
2021/07/29 05:10:18;;;;;;;3.90;3.60;;;24.20;33.80;;;;;;5051840;28;20188;-67
2021/07/29 05:12:44;;;;;;;6.67;4.27;;;24.10;33.50;;;;;;5052163;28;20244;-67
2021/07/29 05:15:10;;;;;;;4.87;4.47;;;24.20;33.60;;;;;;5052057;28;20853;-66
2021/07/29 05:17:35;;;;;;;4.37;4.07;;;24.20;33.50;;;;;;5051605;28;20642;-66
2021/07/29 05:20:01;;;;;;;3.90;3.60;;;24.20;33.50;;;;;;5051360;28;20203;-67
2021/07/29 05:22:26;;;;;;;3.70;3.50;;;24.20;33.60;;;;;;5052021;28;20183;-68
2021/07/29 05:24:52;;;;;;;4.70;3.90;;;24.10;34.20;;;;;;5051384;28;20210;-67
2021/07/29 05:27:17;;;;;;;4.73;4.33;;;24.10;33.40;;;;;;5051847;28;20186;-67
2021/07/29 05:29:43;;;;;;;3.80;3.60;;;24.10;33.40;;;;;;5051851;28;20559;-66
2021/07/29 05:32:09;;;;;;;3.80;3.60;;;24.10;33.30;;;;;;5051508;28;20172;-65
2021/07/29 05:34:34;;;;;;;3.70;3.40;;;24.10;33.30;;;;;;5051607;28;20180;-65
2021/07/29 05:37:00;;;;;;;3.70;3.40;;;24.10;33.30;;;;;;5051722;28;20180;-65
2021/07/29 05:39:26;;;;;;;3.20;3.00;;;24.10;33.20;;;;;;5050486;28;20202;-65
2021/07/29 05:41:51;;;;;;;3.10;2.90;;;24.10;33.20;;;;;;5051654;28;20176;-65
2021/07/29 05:44:17;;;;;;;3.57;3.27;;;24.10;33.00;;;;;;5051878;28;20417;-65
2021/07/29 05:46:43;;;;;;;4.00;3.60;;;24.10;33.00;;;;;;5051473;28;20199;-65
2021/07/29 05:49:08;;;;;;;3.93;3.67;;;24.10;32.90;;;;;;5051528;28;20207;-65
2021/07/29 05:51:33;;;;;;;3.57;3.27;;;24.10;32.90;;;;;;5051632;28;20172;-64
2021/07/29 05:53:59;;;;;;;2.93;2.80;;;24.10;32.80;;;;;;5051236;28;20202;-65
2021/07/29 05:56:24;;;;;;;4.17;3.77;;;24.10;32.80;;;;;;5051439;28;20183;-65
2021/07/29 05:58:50;;;;;;;3.03;2.83;;;24.10;32.70;;;;;;5051718;28;20570;-65
2021/07/29 06:01:15;;;;;;;3.07;2.87;;;24.10;32.80;;;;;;5051476;28;20215;-65
2021/07/29 06:03:41;;;;;;;3.70;3.40;;;24.00;32.60;;;;;;5050211;28;20594;-65
2021/07/29 06:06:07;;;;;;;4.60;3.40;;;24.00;32.60;;;;;;5051766;28;20180;-67
2021/07/29 06:08:32;;;;;;;3.60;3.33;;;24.00;32.60;;;;;;5051451;28;20211;-67
2021/07/29 06:11:01;;;;;;;3.40;3.10;;;24.00;32.80;;;;;;5051965;28;20198;-66
2021/07/29 06:13:27;;;;;;;3.80;3.50;;;24.00;32.80;;;;;;5051767;28;20173;-66
2021/07/29 06:15:52;;;;;;;3.10;2.90;;;24.00;32.80;;;;;;5051294;28;20527;-64
2021/07/29 06:18:18;;;;;;;3.80;3.50;;;24.00;32.80;;;;;;5051463;28;20251;-66
2021/07/29 06:20:43;;;;;;;3.60;3.30;;;24.00;32.90;;;;;;5051746;28;20183;-64
2021/07/29 06:23:09;;;;;;;4.10;3.80;;;24.10;33.20;;;;;;5051152;28;20180;-66
2021/07/29 06:25:34;;;;;;;3.50;3.13;;;24.10;33.40;;;;;;5051234;28;20255;-66
2021/07/29 06:28:00;;;;;;;4.07;3.57;;;24.00;33.40;;;;;;5051640;28;20218;-66
2021/07/29 06:30:25;;;;;;;4.23;3.93;;;24.10;33.40;;;;;;5051313;28;20561;-66
2021/07/29 06:32:51;;;;;;;4.57;4.07;;;24.10;33.50;;;;;;5051511;28;20164;-67
2021/07/29 06:35:16;;;;;;;4.30;3.90;;;24.10;33.50;;;;;;5051305;28;20168;-67
2021/07/29 06:37:42;;;;;;;5.03;3.73;;;24.10;33.40;;;;;;5052196;28;20171;-67
2021/07/29 06:40:08;;;;;;;4.60;3.83;;;24.10;33.40;;;;;;5052104;28;20196;-68
2021/07/29 06:42:34;;;;;;;6.13;3.50;;;24.10;33.40;;;;;;5052490;28;20229;-65
2021/07/29 06:45:00;;;;;;;3.87;3.53;;;24.10;33.40;;;;;;5052497;28;20411;-67
2021/07/29 06:47:26;;;;;;;4.30;3.90;;;24.20;33.50;;;;;;5051912;28;20184;-66
2021/07/29 06:49:55;;;;;;;4.70;3.63;;;24.20;33.50;;;;;;5052511;28;20199;-68
2021/07/29 06:52:21;;;;;;;4.50;4.10;;;24.20;33.60;;;;;;5055111;28;20929;-66
2021/07/29 06:54:47;;;;;;;3.90;3.60;;;24.20;33.80;;;;;;5054947;28;20566;-68
2021/07/29 06:57:12;;;;;;;4.33;3.40;;;24.20;33.70;;;;;;5052537;28;20538;-66
2021/07/29 06:59:38;;;;;;;3.80;3.50;;;24.20;33.80;;;;;;5054883;28;20192;-66
2021/07/29 07:02:04;;;;;;;5.00;4.10;;;24.20;33.70;;;;;;5054890;28;20233;-66
2021/07/29 07:04:30;;;;;;;4.00;3.70;;;24.30;33.70;;;;;;5054708;28;20203;-66
2021/07/29 07:06:55;;;;;;;4.17;3.83;;;24.30;33.60;;;;;;5055054;28;20410;-67
2021/07/29 07:09:21;;;;;;;3.70;3.50;;;24.30;33.60;;;;;;5054605;28;20846;-65
2021/07/29 07:11:47;;;;;;;4.27;3.87;;;24.30;33.60;;;;;;5054946;28;20251;-66
2021/07/29 07:14:12;;;;;;;3.33;2.87;;;24.30;33.60;;;;;;5054631;28;20634;-65
2021/07/29 07:16:38;;;;;;;5.53;3.87;;;24.30;33.60;;;;;;5054368;28;20169;-65
2021/07/29 07:19:05;;;;;;;3.57;3.27;;;24.30;33.60;;;;;;5054216;28;20271;-66
2021/07/29 07:21:31;;;;;;;3.87;3.57;;;24.30;33.60;;;;;;5054819;28;20449;-66
2021/07/29 07:23:57;;;;;;;3.67;3.37;;;24.30;33.60;;;;;;5053833;28;20664;-66
2021/07/29 07:26:24;;;;;;;3.60;3.30;;;24.30;33.60;;;;;;5053923;28;20493;-65
2021/07/29 07:28:51;;;;;;;3.87;3.57;;;24.40;33.70;;;;;;5053954;28;20628;-63
2021/07/29 07:31:18;;;;;;;3.70;3.43;;;24.30;33.60;;;;;;5053774;28;20448;-65
2021/07/29 07:33:44;;;;;;;3.33;3.07;;;24.30;33.60;;;;;;5054052;28;20407;-66
2021/07/29 07:36:10;;;;;;;3.23;3.03;;;24.40;33.70;;;;;;5053520;28;20407;-67
2021/07/29 07:38:35;;;;;;;3.23;3.03;;;24.30;33.60;;;;;;5053570;28;20480;-68
2021/07/29 07:41:08;;;;;;;3.60;3.40;;;24.40;33.70;;;;;;5053968;28;20176;-68
2021/07/29 07:43:35;;;;;;;3.43;3.13;;;24.40;33.70;;;;;;5054047;28;20200;-67
2021/07/29 07:46:01;;;;;;;4.30;3.03;;;24.40;33.80;;;;;;5053322;28;20473;-67
2021/07/29 07:48:27;;;;;;;4.00;3.60;;;24.40;33.70;;;;;;5053903;28;21030;-66
2021/07/29 07:50:54;;;;;;;3.17;2.97;;;24.40;33.70;;;;;;5052144;28;20411;-66
2021/07/29 07:53:23;;;;;;;3.60;3.30;;;24.50;33.80;;;;;;5052174;28;20208;-64
2021/07/29 07:55:48;;;;;;;4.40;3.70;;;24.50;33.80;;;;;;5053831;28;20540;-68
2021/07/29 07:58:14;;;;;;;5.37;3.40;;;24.50;33.80;;;;;;5053460;28;20407;-66
2021/07/29 08:00:39;;;;;;;4.20;3.90;;;24.50;33.80;;;;;;5053279;28;20262;-66
2021/07/29 08:03:05;;;;;;;3.37;3.17;;;24.50;33.80;;;;;;5052792;28;20212;-66
2021/07/29 08:05:31;;;;;;;4.10;3.80;;;24.50;33.80;;;;;;5052840;28;20274;-66
2021/07/29 08:07:57;;;;;;;4.20;3.80;;;24.50;33.80;;;;;;5053144;28;20923;-65
2021/07/29 08:10:23;;;;;;;4.40;4.10;;;24.50;33.80;;;;;;5053518;28;20223;-65
2021/07/29 08:12:49;;;;;;;6.60;4.57;;;24.40;33.70;;;;;;5053300;28;20901;-66
2021/07/29 08:15:14;;;;;;;5.70;4.23;;;24.50;33.80;;;;;;5052653;28;20426;-66
2021/07/29 08:17:40;;;;;;;4.33;3.40;;;24.50;33.80;;;;;;5053316;28;20172;-66
2021/07/29 08:20:06;;;;;;;3.90;3.60;;;24.50;33.80;;;;;;5053072;28;20236;-66
2021/07/29 08:22:31;;;;;;;4.00;3.60;;;24.50;33.80;;;;;;5052840;28;20529;-66
2021/07/29 08:24:57;;;;;;;4.10;3.10;;;24.50;33.70;;;;;;5053028;28;20406;-67
2021/07/29 08:27:22;;;;;;;4.57;4.17;;;24.50;33.70;;;;;;5053006;28;20172;-67
2021/07/29 08:29:48;;;;;;;3.80;3.60;;;24.50;33.40;;;;;;5052658;28;20676;-67
2021/07/29 08:32:14;;;;;;;3.70;3.40;;;24.50;33.30;;;;;;5052851;28;20178;-68
2021/07/29 08:34:40;;;;;;;3.60;3.40;;;24.50;33.10;;;;;;5052677;28;21095;-66
2021/07/29 08:37:05;;;;;;;5.13;4.63;;;24.50;33.20;;;;;;5052556;28;20179;-66
2021/07/29 08:39:31;;;;;;;3.60;3.30;;;24.50;33.30;;;;;;5052959;28;20278;-66
2021/07/29 08:41:56;;;;;;;3.93;3.63;;;24.50;33.30;;;;;;5052812;28;20183;-67
2021/07/29 08:44:22;;;;;;;4.00;3.70;;;24.50;33.20;;;;;;5052057;28;20176;-66
2021/07/29 08:46:49;;;;;;;4.43;4.13;;;24.50;33.00;;;;;;5052765;28;20176;-66
2021/07/29 08:49:15;;;;;;;4.23;3.90;;;24.50;32.90;;;;;;5052485;28;20257;-66
2021/07/29 08:51:41;;;;;;;3.77;3.53;;;24.50;32.90;;;;;;5052649;28;20913;-66
2021/07/29 08:54:11;;;;;;;4.10;3.70;;;24.50;32.90;;;;;;5053639;28;20553;-66
2021/07/29 08:56:37;;;;;;;5.70;3.87;;;24.50;32.80;;;;;;5052306;28;20471;-65
2021/07/29 08:59:03;;;;;;;4.80;4.40;;;24.60;32.70;;;;;;5052130;28;20441;-67
2021/07/29 09:01:48;;;;;;;4.80;4.10;;;24.60;32.50;;;;;;5052508;28;20407;-66
2021/07/29 09:04:15;;;;;;;4.00;3.70;;;24.60;32.50;;;;;;5052586;28;20563;-66
2021/07/29 09:06:53;;;;;;;3.53;3.23;;;24.60;32.50;;;;;;5053280;28;20433;-66
2021/07/29 09:09:55;;;;;;;4.13;3.83;;;24.60;33.20;;;;;;5052180;28;20458;-66
2021/07/29 09:12:24;;;;;;;4.23;3.93;;;24.50;32.50;;;;;;5029568;28;20426;-66
2021/07/29 09:14:52;;;;;;;4.00;3.70;;;24.50;32.50;;;;;;5047631;28;20418;-66
2021/07/29 09:17:19;;;;;;;4.10;3.80;;;24.50;32.50;;;;;;5052064;28;20495;-66
2021/07/29 09:19:46;;;;;;;3.63;3.43;;;24.50;32.40;;;;;;5052009;28;20500;-67
2021/07/29 09:22:20;;;;;;;4.30;3.90;;;24.50;32.40;;;;;;5051790;28;20422;-66
2021/07/29 09:25:03;;;;;;;4.40;4.00;;;24.60;32.40;;;;;;5051494;28;21279;-66
2021/07/29 09:27:38;;;;;;;4.30;3.90;;;24.60;32.20;;;;;;5052061;28;20780;-65
2021/07/29 09:30:09;;;;;;;3.90;3.50;;;24.60;32.20;;;;;;5051768;28;20449;-66
2021/07/29 09:32:35;;;;;;;4.40;4.00;;;24.60;32.30;;;;;;5051831;28;20888;-66
2021/07/29 09:35:01;;;;;;;3.90;3.60;;;24.60;32.10;;;;;;5051881;28;20453;-66
2021/07/29 09:37:27;;;;;;;3.97;3.67;;;24.60;32.10;;;;;;5051619;28;20812;-67
2021/07/29 09:40:02;;;;;;;4.80;4.40;;;24.60;32.00;;;;;;5051915;28;20203;-66
2021/07/29 09:42:28;;;;;;;4.07;3.87;;;24.60;31.90;;;;;;5051437;28;20426;-68
2021/07/29 09:44:54;;;;;;;3.97;3.70;;;24.70;31.80;;;;;;5051182;28;20473;-66
2021/07/29 09:47:21;;;;;;;4.07;3.77;;;24.70;31.70;;;;;;5051534;28;20187;-67
2021/07/29 09:49:48;;;;;;;4.00;3.70;;;24.70;31.70;;;;;;5051149;28;20489;-67
2021/07/29 09:52:14;;;;;;;4.50;4.20;;;24.80;31.60;;;;;;5051525;28;20511;-66
2021/07/29 09:54:45;;;;;;;3.30;3.10;;;24.70;31.50;;;;;;5051431;28;20777;-68
2021/07/29 09:57:11;;;;;;;3.77;3.57;;;24.60;31.50;;;;;;5051566;28;20418;-67
2021/07/29 09:59:38;;;;;;;4.80;4.40;;;24.70;31.40;;;;;;5052124;28;20427;-67
2021/07/29 10:02:04;;;;;;;3.97;3.67;;;24.80;31.50;;;;;;5051617;28;20417;-67
2021/07/29 10:04:33;;;;;;;4.13;3.83;;;24.80;31.40;;;;;;5051194;28;20462;-66
2021/07/29 10:07:05;;;;;;;4.20;3.90;;;24.80;31.30;;;;;;5051869;28;20425;-66
2021/07/29 10:09:35;;;;;;;3.80;3.50;;;24.80;31.10;;;;;;5052130;28;20837;-67
2021/07/29 10:12:01;;;;;;;4.20;3.90;;;24.90;31.20;;;;;;5051552;28;20407;-67
2021/07/29 10:14:55;;;;;;;3.83;3.53;;;24.80;32.00;;;;;;5052156;28;20422;-67
2021/07/29 10:17:36;;;;;;;4.10;3.70;;;24.80;31.10;;;;;;5051825;28;20406;-65
2021/07/29 10:20:14;;;;;;;4.30;3.90;;;24.90;31.10;;;;;;5049282;28;20454;-66
2021/07/29 10:22:40;;;;;;;4.07;3.77;;;24.90;31.00;;;;;;5051251;28;20459;-66
2021/07/29 10:25:06;;;;;;;4.83;4.33;;;24.90;31.00;;;;;;5046361;28;20422;-66
2021/07/29 10:27:32;;;;;;;4.30;3.90;;;24.90;30.80;;;;;;5055475;28;20414;-66
2021/07/29 10:30:19;;;;;;;4.10;3.80;;;24.90;30.80;;;;;;5056215;28;20215;-66
2021/07/29 10:32:49;;;;;;;4.73;4.23;;;25.00;30.70;;;;;;5055322;28;20442;-64
2021/07/29 10:35:30;;;;;;;4.03;3.63;;;25.00;30.60;;;;;;5054694;28;20787;-66
2021/07/29 10:37:56;;;;;;;4.10;3.80;;;25.00;30.50;;;;;;5055151;28;20506;-66
2021/07/29 10:40:36;;;;;;;4.10;3.80;;;25.00;30.40;;;;;;5055025;28;20427;-66
2021/07/29 10:43:23;;;;;;;4.60;4.20;;;25.10;30.30;;;;;;5053720;28;20425;-66
2021/07/29 10:45:54;;;;;;;4.60;4.20;;;25.10;30.20;;;;;;5052668;28;20414;-66
2021/07/29 10:48:43;;;;;;;4.50;4.10;;;25.10;30.20;;;;;;5054044;28;20584;-66
2021/07/29 10:51:22;;;;;;;4.43;4.10;;;25.00;30.10;;;;;;5053737;28;20489;-65
2021/07/29 10:54:06;;;;;;;4.27;3.87;;;25.00;30.40;;;;;;5054882;28;20438;-65
2021/07/29 10:56:36;;;;;;;4.87;4.40;;;24.90;30.40;;;;;;5054245;28;20452;-66
2021/07/29 10:59:02;;;;;;;5.10;4.37;;;24.90;30.50;;;;;;5054810;28;20480;-66
2021/07/29 11:01:47;;;;;;;4.27;3.97;;;24.90;30.30;;;;;;5054615;28;20410;-66
2021/07/29 11:04:13;;;;;;;4.50;4.20;;;24.90;30.20;;;;;;5054165;28;20286;-66
2021/07/29 11:06:42;;;;;;;4.43;4.03;;;24.90;30.20;;;;;;5054432;28;20489;-66
2021/07/29 11:09:31;;;;;;;4.50;4.17;;;24.90;30.30;;;;;;5054612;28;20281;-66
2021/07/29 11:11:57;;;;;;;5.90;4.87;;;25.00;30.80;;;;;;5049587;28;20433;-66
2021/07/29 11:14:33;;;;;;;5.43;4.93;;;25.00;30.00;;;;;;5054429;28;20410;-66
2021/07/29 11:17:01;;;;;;;4.50;4.20;;;25.00;30.00;;;;;;5054274;28;20446;-66
2021/07/29 11:19:27;;;;;;;4.40;4.10;;;24.90;30.10;;;;;;5047179;28;20475;-67
2021/07/29 11:22:06;;;;;;;4.77;4.40;;;24.90;30.20;;;;;;5040541;28;20478;-67
2021/07/29 11:24:32;;;;;;;5.10;4.70;;;24.90;30.10;;;;;;5053784;28;20187;-67
2021/07/29 11:26:58;;;;;;;4.70;4.40;;;24.90;29.90;;;;;;5053791;28;20756;-65
2021/07/29 11:29:24;;;;;;;4.80;4.40;;;24.90;30.00;;;;;;5053922;28;20473;-66
2021/07/29 11:31:55;;;;;;;5.50;5.10;;;24.90;30.00;;;;;;5053877;28;20414;-66
2021/07/29 11:34:31;;;;;;;4.90;4.50;;;24.90;30.00;;;;;;5053253;28;20180;-66
2021/07/29 11:36:57;;;;;;;4.23;4.03;;;24.80;29.90;;;;;;5052088;28;20423;-67
2021/07/29 11:39:25;;;;;;;4.70;4.30;;;24.80;29.90;;;;;;5053829;28;20435;-66
2021/07/29 11:41:56;;;;;;;4.93;4.63;;;24.80;29.70;;;;;;5053052;28;20418;-66
2021/07/29 11:44:23;;;;;;;5.17;4.77;;;24.80;29.70;;;;;;5054695;28;20406;-68
2021/07/29 11:46:58;;;;;;;5.43;4.97;;;24.80;29.70;;;;;;5056269;28;20424;-67
2021/07/29 11:49:25;;;;;;;5.00;4.70;;;24.90;29.60;;;;;;5056996;28;20218;-67
2021/07/29 11:52:05;;;;;;;5.30;4.90;;;24.90;29.70;;;;;;5053526;28;20416;-67
2021/07/29 11:54:31;;;;;;;5.83;5.40;;;24.90;29.70;;;;;;5053430;28;20509;-66
2021/07/29 11:57:00;;;;;;;5.30;4.80;;;24.80;29.60;;;;;;5053194;28;20489;-66
2021/07/29 11:59:39;;;;;;;5.20;4.83;;;24.80;29.70;;;;;;5054113;28;20198;-68
2021/07/29 12:02:06;;;;;;;5.73;4.73;;;24.80;29.70;;;;;;5055278;28;20419;-68
2021/07/29 12:04:34;;;;;;;5.00;4.60;;;24.80;29.70;;;;;;5054606;28;20437;-67
2021/07/29 12:07:01;;;;;;;4.93;4.60;;;24.80;29.70;;;;;;5058293;28;20502;-66
2021/07/29 12:09:27;;;;;;;5.00;4.60;;;24.80;29.60;;;;;;5053924;28;20462;-67
2021/07/29 12:11:54;;;;;;;4.97;4.57;;;24.80;29.70;;;;;;5053362;28;20422;-66
2021/07/29 12:14:21;;;;;;;5.93;4.70;;;24.90;29.60;;;;;;5053333;28;20429;-66
2021/07/29 12:16:52;;;;;;;4.90;4.53;;;24.90;29.70;;;;;;5052862;28;20795;-66
2021/07/29 12:19:19;;;;;;;4.30;4.00;;;24.90;29.60;;;;;;5053008;28;20459;-67
2021/07/29 12:21:46;;;;;;;4.87;4.57;;;24.90;29.50;;;;;;5053295;28;20415;-67
2021/07/29 12:24:13;;;;;;;4.87;4.57;;;24.90;29.50;;;;;;5053105;28;20808;-68
2021/07/29 12:26:39;;;;;;;4.80;4.40;;;24.90;29.60;;;;;;5052621;28;20472;-67
2021/07/29 12:29:04;;;;;;;4.33;4.03;;;24.90;29.60;;;;;;5052896;28;20821;-67
2021/07/29 12:31:32;;;;;;;5.20;4.80;;;24.90;29.60;;;;;;5053075;28;20406;-69
2021/07/29 12:34:02;;;;;;;4.60;4.23;;;24.90;29.70;;;;;;5053417;28;20302;-68
2021/07/29 12:36:48;;;;;;;4.50;4.20;;;24.90;29.70;;;;;;5052875;28;20411;-69
2021/07/29 12:39:16;;;;;;;5.70;5.30;;;24.90;29.70;;;;;;5052990;28;20466;-69
2021/07/29 12:41:44;;;;;;;4.80;4.50;;;24.90;29.60;;;;;;5053016;28;20418;-69
2021/07/29 12:44:10;;;;;;;4.70;4.30;;;24.90;29.70;;;;;;5054172;28;20418;-67
2021/07/29 12:46:37;;;;;;;6.63;4.00;;;24.90;29.60;;;;;;5052952;28;21157;-69
2021/07/29 12:49:03;;;;;;;4.40;4.00;;;24.90;29.60;;;;;;5051551;28;20470;-66